sensor_id;sensor_type;location;lat;lon;timestamp;temperature;humidity
43641;DHT22;72791;52.546;13.570;2024-03-08T00:00:12;-0.40;99.90
43641;DHT22;72791;52.546;13.570;2024-03-08T00:02:38;-0.50;99.90
43641;DHT22;72791;52.546;13.570;2024-03-08T00:05:06;-0.60;99.90
43641;DHT22;72791;52.546;13.570;2024-03-08T00:07:41;-0.60;99.90
43641;DHT22;72791;52.546;13.570;2024-03-08T00:10:10;-0.60;99.90
43641;DHT22;72791;52.546;13.570;2024-03-08T00:12:44;-0.60;99.90
43641;DHT22;72791;52.546;13.570;2024-03-08T00:15:11;-0.50;99.90
43641;DHT22;72791;52.546;13.570;2024-03-08T00:17:39;-0.50;99.90
43641;DHT22;72791;52.546;13.570;2024-03-08T00:20:06;-0.50;99.90
43641;DHT22;72791;52.546;13.570;2024-03-08T00:22:37;-0.50;99.90
43641;DHT22;72791;52.546;13.570;2024-03-08T00:25:05;-0.50;99.90
43641;DHT22;72791;52.546;13.570;2024-03-08T00:27:32;-0.60;99.90
43641;DHT22;72791;52.546;13.570;2024-03-08T00:29:59;-0.60;99.90
43641;DHT22;72791;52.546;13.570;2024-03-08T00:32:24;-0.60;99.90
43641;DHT22;72791;52.546;13.570;2024-03-08T00:34:50;-0.70;99.90
43641;DHT22;72791;52.546;13.570;2024-03-08T00:37:23;-0.70;99.90
43641;DHT22;72791;52.546;13.570;2024-03-08T00:39:49;-0.70;99.90
43641;DHT22;72791;52.546;13.570;2024-03-08T00:42:16;-0.70;99.90
43641;DHT22;72791;52.546;13.570;2024-03-08T00:44:41;-0.70;99.90
43641;DHT22;72791;52.546;13.570;2024-03-08T00:47:08;-0.70;99.90
43641;DHT22;72791;52.546;13.570;2024-03-08T00:49:36;-0.70;99.90
43641;DHT22;72791;52.546;13.570;2024-03-08T00:52:04;-0.70;99.90
43641;DHT22;72791;52.546;13.570;2024-03-08T00:54:34;-0.70;99.90
43641;DHT22;72791;52.546;13.570;2024-03-08T00:57:01;-0.70;99.90
43641;DHT22;72791;52.546;13.570;2024-03-08T00:59:31;-0.70;99.90
43641;DHT22;72791;52.546;13.570;2024-03-08T01:02:01;-0.80;99.90
43641;DHT22;72791;52.546;13.570;2024-03-08T01:04:28;-0.80;99.90
43641;DHT22;72791;52.546;13.570;2024-03-08T01:06:57;-0.80;99.90
43641;DHT22;72791;52.546;13.570;2024-03-08T01:09:24;-0.90;99.90
43641;DHT22;72791;52.546;13.570;2024-03-08T01:11:49;-0.90;99.90
43641;DHT22;72791;52.546;13.570;2024-03-08T01:14:16;-0.90;99.90
43641;DHT22;72791;52.546;13.570;2024-03-08T01:16:41;-0.90;99.90
43641;DHT22;72791;52.546;13.570;2024-03-08T01:19:07;-0.90;99.90
43641;DHT22;72791;52.546;13.570;2024-03-08T01:21:34;-0.90;99.90
43641;DHT22;72791;52.546;13.570;2024-03-08T01:24:00;-1.00;99.90
43641;DHT22;72791;52.546;13.570;2024-03-08T01:26:25;-1.00;99.90
43641;DHT22;72791;52.546;13.570;2024-03-08T01:28:51;-1.10;99.90
43641;DHT22;72791;52.546;13.570;2024-03-08T01:31:17;-1.10;99.90
43641;DHT22;72791;52.546;13.570;2024-03-08T01:33:42;-1.10;99.90
43641;DHT22;72791;52.546;13.570;2024-03-08T01:36:08;-1.10;99.90
43641;DHT22;72791;52.546;13.570;2024-03-08T01:38:36;-1.10;99.90
43641;DHT22;72791;52.546;13.570;2024-03-08T01:41:02;-1.10;99.90
43641;DHT22;72791;52.546;13.570;2024-03-08T01:43:29;-1.10;99.90
43641;DHT22;72791;52.546;13.570;2024-03-08T01:45:59;-1.10;99.90
43641;DHT22;72791;52.546;13.570;2024-03-08T01:48:25;-1.20;99.90
43641;DHT22;72791;52.546;13.570;2024-03-08T01:50:53;-1.30;99.90
43641;DHT22;72791;52.546;13.570;2024-03-08T01:53:25;-1.30;99.90
43641;DHT22;72791;52.546;13.570;2024-03-08T01:55:56;-1.40;99.90
43641;DHT22;72791;52.546;13.570;2024-03-08T01:58:23;-1.40;99.90
43641;DHT22;72791;52.546;13.570;2024-03-08T02:00:50;-1.40;99.90
43641;DHT22;72791;52.546;13.570;2024-03-08T02:03:18;-1.30;99.90
43641;DHT22;72791;52.546;13.570;2024-03-08T02:05:44;-1.30;99.90
43641;DHT22;72791;52.546;13.570;2024-03-08T02:08:10;-1.30;99.90
43641;DHT22;72791;52.546;13.570;2024-03-08T02:10:43;-1.30;99.90
43641;DHT22;72791;52.546;13.570;2024-03-08T02:13:11;-1.30;99.90
43641;DHT22;72791;52.546;13.570;2024-03-08T02:16:03;-1.20;99.90
43641;DHT22;72791;52.546;13.570;2024-03-08T02:18:30;-1.30;99.90
43641;DHT22;72791;52.546;13.570;2024-03-08T02:20:59;-1.30;99.90
43641;DHT22;72791;52.546;13.570;2024-03-08T02:23:25;-1.30;99.90
43641;DHT22;72791;52.546;13.570;2024-03-08T02:25:54;-1.30;99.90
43641;DHT22;72791;52.546;13.570;2024-03-08T02:28:23;-1.40;99.90
43641;DHT22;72791;52.546;13.570;2024-03-08T02:30:50;-1.40;99.90
43641;DHT22;72791;52.546;13.570;2024-03-08T02:33:17;-1.50;99.90
43641;DHT22;72791;52.546;13.570;2024-03-08T02:35:44;-1.50;99.90
43641;DHT22;72791;52.546;13.570;2024-03-08T02:38:13;-1.50;99.90
43641;DHT22;72791;52.546;13.570;2024-03-08T02:40:44;-1.60;99.90
43641;DHT22;72791;52.546;13.570;2024-03-08T02:43:14;-1.60;99.90
43641;DHT22;72791;52.546;13.570;2024-03-08T02:45:43;-1.60;99.90
43641;DHT22;72791;52.546;13.570;2024-03-08T02:48:09;-1.50;99.90
43641;DHT22;72791;52.546;13.570;2024-03-08T02:50:37;-1.50;99.90
43641;DHT22;72791;52.546;13.570;2024-03-08T02:53:05;-1.40;99.90
43641;DHT22;72791;52.546;13.570;2024-03-08T02:55:31;-1.40;99.90
43641;DHT22;72791;52.546;13.570;2024-03-08T02:57:59;-1.40;99.90
43641;DHT22;72791;52.546;13.570;2024-03-08T03:00:25;-1.40;99.90
43641;DHT22;72791;52.546;13.570;2024-03-08T03:02:50;-1.40;99.90
43641;DHT22;72791;52.546;13.570;2024-03-08T03:05:23;-1.40;99.90
43641;DHT22;72791;52.546;13.570;2024-03-08T03:07:49;-1.40;99.90
43641;DHT22;72791;52.546;13.570;2024-03-08T03:10:18;-1.40;99.90
43641;DHT22;72791;52.546;13.570;2024-03-08T03:12:46;-1.40;99.90
43641;DHT22;72791;52.546;13.570;2024-03-08T03:15:17;-1.40;99.90
43641;DHT22;72791;52.546;13.570;2024-03-08T03:17:50;-1.50;99.90
43641;DHT22;72791;52.546;13.570;2024-03-08T03:20:17;-1.40;99.90
43641;DHT22;72791;52.546;13.570;2024-03-08T03:22:49;-1.40;99.90
43641;DHT22;72791;52.546;13.570;2024-03-08T03:25:19;-1.30;99.90
43641;DHT22;72791;52.546;13.570;2024-03-08T03:27:49;-1.30;99.90
43641;DHT22;72791;52.546;13.570;2024-03-08T03:30:15;-1.40;99.90
43641;DHT22;72791;52.546;13.570;2024-03-08T03:32:50;-1.40;99.90
43641;DHT22;72791;52.546;13.570;2024-03-08T03:35:20;-1.40;99.90
43641;DHT22;72791;52.546;13.570;2024-03-08T03:37:49;-1.40;99.90
43641;DHT22;72791;52.546;13.570;2024-03-08T03:40:38;-1.40;99.90
43641;DHT22;72791;52.546;13.570;2024-03-08T03:43:05;-1.40;99.90
43641;DHT22;72791;52.546;13.570;2024-03-08T03:45:31;-1.50;99.90
43641;DHT22;72791;52.546;13.570;2024-03-08T03:48:07;-1.50;99.90
43641;DHT22;72791;52.546;13.570;2024-03-08T03:50:35;-1.50;99.90
43641;DHT22;72791;52.546;13.570;2024-03-08T03:53:05;-1.50;99.90
43641;DHT22;72791;52.546;13.570;2024-03-08T03:55:35;-1.60;99.90
43641;DHT22;72791;52.546;13.570;2024-03-08T03:58:02;-1.60;99.90
43641;DHT22;72791;52.546;13.570;2024-03-08T04:00:28;-1.70;99.90
43641;DHT22;72791;52.546;13.570;2024-03-08T04:02:54;-1.80;99.90
43641;DHT22;72791;52.546;13.570;2024-03-08T04:05:26;-1.80;99.90
43641;DHT22;72791;52.546;13.570;2024-03-08T04:07:52;-1.80;99.90
43641;DHT22;72791;52.546;13.570;2024-03-08T04:10:20;-1.80;99.90
43641;DHT22;72791;52.546;13.570;2024-03-08T04:12:46;-1.80;99.90
43641;DHT22;72791;52.546;13.570;2024-03-08T04:15:13;-1.70;99.90
43641;DHT22;72791;52.546;13.570;2024-03-08T04:17:42;-1.70;99.90
43641;DHT22;72791;52.546;13.570;2024-03-08T04:20:07;-1.70;99.90
43641;DHT22;72791;52.546;13.570;2024-03-08T04:22:36;-1.80;99.90
43641;DHT22;72791;52.546;13.570;2024-03-08T04:25:03;-1.80;99.90
43641;DHT22;72791;52.546;13.570;2024-03-08T04:27:31;-1.80;99.90
43641;DHT22;72791;52.546;13.570;2024-03-08T04:29:58;-1.80;99.90
43641;DHT22;72791;52.546;13.570;2024-03-08T04:32:26;-1.90;99.90
43641;DHT22;72791;52.546;13.570;2024-03-08T04:34:53;-1.90;99.90
43641;DHT22;72791;52.546;13.570;2024-03-08T04:37:19;-2.00;99.90
43641;DHT22;72791;52.546;13.570;2024-03-08T04:39:47;-1.90;99.90
43641;DHT22;72791;52.546;13.570;2024-03-08T04:42:13;-1.90;99.90
43641;DHT22;72791;52.546;13.570;2024-03-08T04:44:40;-2.00;99.90
43641;DHT22;72791;52.546;13.570;2024-03-08T04:47:06;-2.00;99.90
43641;DHT22;72791;52.546;13.570;2024-03-08T04:49:34;-2.10;99.90
43641;DHT22;72791;52.546;13.570;2024-03-08T04:52:03;-2.10;99.90
43641;DHT22;72791;52.546;13.570;2024-03-08T04:54:32;-2.10;99.90
43641;DHT22;72791;52.546;13.570;2024-03-08T04:57:01;-2.10;99.90
43641;DHT22;72791;52.546;13.570;2024-03-08T04:59:28;-2.10;99.90
43641;DHT22;72791;52.546;13.570;2024-03-08T05:01:54;-2.10;99.90
43641;DHT22;72791;52.546;13.570;2024-03-08T05:04:19;-2.10;99.90
43641;DHT22;72791;52.546;13.570;2024-03-08T05:06:45;-2.10;99.90
43641;DHT22;72791;52.546;13.570;2024-03-08T05:09:14;-2.10;99.90
43641;DHT22;72791;52.546;13.570;2024-03-08T05:11:43;-2.20;99.90
43641;DHT22;72791;52.546;13.570;2024-03-08T05:14:12;-2.30;99.90
43641;DHT22;72791;52.546;13.570;2024-03-08T05:16:46;-2.30;99.90
43641;DHT22;72791;52.546;13.570;2024-03-08T05:19:21;-2.30;99.90
43641;DHT22;72791;52.546;13.570;2024-03-08T05:21:48;-2.30;99.90
43641;DHT22;72791;52.546;13.570;2024-03-08T05:24:14;-2.30;99.90
43641;DHT22;72791;52.546;13.570;2024-03-08T05:26:42;-2.30;99.90
43641;DHT22;72791;52.546;13.570;2024-03-08T05:29:09;-2.30;99.90
43641;DHT22;72791;52.546;13.570;2024-03-08T05:31:51;-2.30;99.90
43641;DHT22;72791;52.546;13.570;2024-03-08T05:34:19;-2.30;99.90
43641;DHT22;72791;52.546;13.570;2024-03-08T05:36:46;-2.20;99.90
43641;DHT22;72791;52.546;13.570;2024-03-08T05:39:15;-2.20;99.90
43641;DHT22;72791;52.546;13.570;2024-03-08T05:41:44;-2.10;99.90
43641;DHT22;72791;52.546;13.570;2024-03-08T05:44:11;-2.10;99.90
43641;DHT22;72791;52.546;13.570;2024-03-08T05:46:39;-2.00;99.90
43641;DHT22;72791;52.546;13.570;2024-03-08T05:49:09;-2.00;99.90
43641;DHT22;72791;52.546;13.570;2024-03-08T05:51:39;-2.00;99.90
43641;DHT22;72791;52.546;13.570;2024-03-08T05:54:07;-2.00;99.90
43641;DHT22;72791;52.546;13.570;2024-03-08T05:56:35;-1.90;99.90
43641;DHT22;72791;52.546;13.570;2024-03-08T05:59:01;-1.90;99.90
43641;DHT22;72791;52.546;13.570;2024-03-08T06:01:28;-1.90;99.90
43641;DHT22;72791;52.546;13.570;2024-03-08T06:03:57;-1.80;99.90
43641;DHT22;72791;52.546;13.570;2024-03-08T06:06:24;-1.80;99.90
43641;DHT22;72791;52.546;13.570;2024-03-08T06:08:51;-1.80;99.90
43641;DHT22;72791;52.546;13.570;2024-03-08T06:11:18;-1.80;99.90
43641;DHT22;72791;52.546;13.570;2024-03-08T06:13:45;-1.80;99.90
43641;DHT22;72791;52.546;13.570;2024-03-08T06:16:16;-1.80;99.90
43641;DHT22;72791;52.546;13.570;2024-03-08T06:18:42;-1.80;99.90
43641;DHT22;72791;52.546;13.570;2024-03-08T06:21:08;-1.80;99.90
43641;DHT22;72791;52.546;13.570;2024-03-08T06:23:40;-1.80;99.90
43641;DHT22;72791;52.546;13.570;2024-03-08T06:26:05;-1.70;99.90
43641;DHT22;72791;52.546;13.570;2024-03-08T06:28:31;-1.70;99.90
43641;DHT22;72791;52.546;13.570;2024-03-08T06:31:03;-1.70;99.90
43641;DHT22;72791;52.546;13.570;2024-03-08T06:33:30;-1.60;99.90
43641;DHT22;72791;52.546;13.570;2024-03-08T06:35:58;-1.60;99.90
43641;DHT22;72791;52.546;13.570;2024-03-08T06:38:24;-1.50;99.90
43641;DHT22;72791;52.546;13.570;2024-03-08T06:40:51;-1.40;99.90
43641;DHT22;72791;52.546;13.570;2024-03-08T06:43:18;-1.30;99.90
43641;DHT22;72791;52.546;13.570;2024-03-08T06:45:45;-1.20;99.90
43641;DHT22;72791;52.546;13.570;2024-03-08T06:48:15;-1.20;99.90
43641;DHT22;72791;52.546;13.570;2024-03-08T06:50:46;-1.10;99.90
43641;DHT22;72791;52.546;13.570;2024-03-08T06:53:13;-1.00;99.90
43641;DHT22;72791;52.546;13.570;2024-03-08T06:55:39;-0.90;99.90
43641;DHT22;72791;52.546;13.570;2024-03-08T06:58:05;-0.80;99.90
43641;DHT22;72791;52.546;13.570;2024-03-08T07:00:32;-0.80;99.90
43641;DHT22;72791;52.546;13.570;2024-03-08T07:02:58;-0.70;99.90
43641;DHT22;72791;52.546;13.570;2024-03-08T07:05:29;-0.60;99.90
43641;DHT22;72791;52.546;13.570;2024-03-08T07:07:55;-0.50;99.90
43641;DHT22;72791;52.546;13.570;2024-03-08T07:10:25;-0.40;99.90
43641;DHT22;72791;52.546;13.570;2024-03-08T07:12:53;-0.30;99.90
43641;DHT22;72791;52.546;13.570;2024-03-08T07:15:20;-0.30;99.90
43641;DHT22;72791;52.546;13.570;2024-03-08T07:17:46;-0.20;99.90
43641;DHT22;72791;52.546;13.570;2024-03-08T07:20:13;-0.10;99.90
43641;DHT22;72791;52.546;13.570;2024-03-08T07:22:43;0.00;99.90
43641;DHT22;72791;52.546;13.570;2024-03-08T07:25:08;0.10;99.90
43641;DHT22;72791;52.546;13.570;2024-03-08T07:27:53;0.20;99.90
43641;DHT22;72791;52.546;13.570;2024-03-08T07:30:24;0.30;99.90
43641;DHT22;72791;52.546;13.570;2024-03-08T07:33:09;0.30;99.90
43641;DHT22;72791;52.546;13.570;2024-03-08T07:35:40;0.40;99.90
43641;DHT22;72791;52.546;13.570;2024-03-08T07:38:09;0.50;99.90
43641;DHT22;72791;52.546;13.570;2024-03-08T07:40:36;0.60;99.90
43641;DHT22;72791;52.546;13.570;2024-03-08T07:43:05;0.60;99.90
43641;DHT22;72791;52.546;13.570;2024-03-08T07:45:31;0.70;99.90
43641;DHT22;72791;52.546;13.570;2024-03-08T07:47:57;0.80;99.90
43641;DHT22;72791;52.546;13.570;2024-03-08T07:50:24;0.90;99.90
43641;DHT22;72791;52.546;13.570;2024-03-08T07:52:50;1.00;99.90
43641;DHT22;72791;52.546;13.570;2024-03-08T07:55:16;1.10;99.90
43641;DHT22;72791;52.546;13.570;2024-03-08T07:57:42;1.20;99.90
43641;DHT22;72791;52.546;13.570;2024-03-08T08:00:08;1.40;99.90
43641;DHT22;72791;52.546;13.570;2024-03-08T08:02:35;1.50;99.90
43641;DHT22;72791;52.546;13.570;2024-03-08T08:05:01;1.50;99.90
43641;DHT22;72791;52.546;13.570;2024-03-08T08:07:29;1.60;99.90
43641;DHT22;72791;52.546;13.570;2024-03-08T08:09:54;1.70;99.90
43641;DHT22;72791;52.546;13.570;2024-03-08T08:12:20;1.70;99.90
43641;DHT22;72791;52.546;13.570;2024-03-08T08:14:46;1.80;99.90
43641;DHT22;72791;52.546;13.570;2024-03-08T08:17:12;1.90;99.90
43641;DHT22;72791;52.546;13.570;2024-03-08T08:19:40;1.80;99.90
43641;DHT22;72791;52.546;13.570;2024-03-08T08:22:06;2.00;99.90
43641;DHT22;72791;52.546;13.570;2024-03-08T08:24:35;2.10;99.90
43641;DHT22;72791;52.546;13.570;2024-03-08T08:27:03;2.20;99.90
43641;DHT22;72791;52.546;13.570;2024-03-08T08:29:29;2.30;99.90
43641;DHT22;72791;52.546;13.570;2024-03-08T08:31:58;2.40;99.90
43641;DHT22;72791;52.546;13.570;2024-03-08T08:34:25;2.50;99.90
43641;DHT22;72791;52.546;13.570;2024-03-08T08:36:52;2.50;99.90
43641;DHT22;72791;52.546;13.570;2024-03-08T08:39:18;2.70;99.90
43641;DHT22;72791;52.546;13.570;2024-03-08T08:41:44;2.80;99.90
43641;DHT22;72791;52.546;13.570;2024-03-08T08:44:10;2.80;99.90
43641;DHT22;72791;52.546;13.570;2024-03-08T08:46:38;2.80;99.90
43641;DHT22;72791;52.546;13.570;2024-03-08T08:49:04;2.90;99.90
43641;DHT22;72791;52.546;13.570;2024-03-08T08:51:30;3.00;99.90
43641;DHT22;72791;52.546;13.570;2024-03-08T08:53:59;3.00;99.90
43641;DHT22;72791;52.546;13.570;2024-03-08T08:56:25;3.10;99.90
43641;DHT22;72791;52.546;13.570;2024-03-08T08:58:52;3.20;99.90
43641;DHT22;72791;52.546;13.570;2024-03-08T09:01:19;3.30;99.90
43641;DHT22;72791;52.546;13.570;2024-03-08T09:03:45;3.40;99.90
43641;DHT22;72791;52.546;13.570;2024-03-08T09:06:12;3.50;99.90
43641;DHT22;72791;52.546;13.570;2024-03-08T09:08:42;3.60;99.90
43641;DHT22;72791;52.546;13.570;2024-03-08T09:11:09;3.70;99.90
43641;DHT22;72791;52.546;13.570;2024-03-08T09:13:35;3.70;99.90
43641;DHT22;72791;52.546;13.570;2024-03-08T09:16:03;3.80;99.90
43641;DHT22;72791;52.546;13.570;2024-03-08T09:18:31;3.80;99.90
43641;DHT22;72791;52.546;13.570;2024-03-08T09:20:58;3.90;99.90
43641;DHT22;72791;52.546;13.570;2024-03-08T09:23:25;4.00;99.90
43641;DHT22;72791;52.546;13.570;2024-03-08T09:25:58;4.00;99.90
43641;DHT22;72791;52.546;13.570;2024-03-08T09:28:24;4.20;99.90
43641;DHT22;72791;52.546;13.570;2024-03-08T09:30:50;4.30;99.90
43641;DHT22;72791;52.546;13.570;2024-03-08T09:33:16;4.40;99.90
43641;DHT22;72791;52.546;13.570;2024-03-08T09:35:48;4.40;99.90
43641;DHT22;72791;52.546;13.570;2024-03-08T09:38:14;4.40;99.90
43641;DHT22;72791;52.546;13.570;2024-03-08T09:40:44;4.50;99.90
43641;DHT22;72791;52.546;13.570;2024-03-08T09:43:11;4.60;99.90
43641;DHT22;72791;52.546;13.570;2024-03-08T09:45:37;4.60;99.90
43641;DHT22;72791;52.546;13.570;2024-03-08T09:48:12;4.60;99.90
43641;DHT22;72791;52.546;13.570;2024-03-08T09:50:43;4.70;99.90
43641;DHT22;72791;52.546;13.570;2024-03-08T09:53:11;4.70;99.90
43641;DHT22;72791;52.546;13.570;2024-03-08T09:55:38;4.80;99.90
43641;DHT22;72791;52.546;13.570;2024-03-08T09:58:08;4.70;99.90
43641;DHT22;72791;52.546;13.570;2024-03-08T10:00:43;4.70;99.90
43641;DHT22;72791;52.546;13.570;2024-03-08T10:03:10;4.70;99.90
43641;DHT22;72791;52.546;13.570;2024-03-08T10:05:36;4.80;99.90
43641;DHT22;72791;52.546;13.570;2024-03-08T10:08:03;4.90;99.90
43641;DHT22;72791;52.546;13.570;2024-03-08T10:10:30;4.90;99.90
43641;DHT22;72791;52.546;13.570;2024-03-08T10:12:57;5.00;99.90
43641;DHT22;72791;52.546;13.570;2024-03-08T10:15:23;5.00;99.90
43641;DHT22;72791;52.546;13.570;2024-03-08T10:17:49;5.10;99.90
43641;DHT22;72791;52.546;13.570;2024-03-08T10:20:18;5.10;99.90
43641;DHT22;72791;52.546;13.570;2024-03-08T10:22:45;5.10;99.90
43641;DHT22;72791;52.546;13.570;2024-03-08T10:25:11;5.10;99.90
43641;DHT22;72791;52.546;13.570;2024-03-08T10:27:39;5.10;99.90
43641;DHT22;72791;52.546;13.570;2024-03-08T10:30:16;5.20;99.90
43641;DHT22;72791;52.546;13.570;2024-03-08T10:32:46;5.20;99.90
43641;DHT22;72791;52.546;13.570;2024-03-08T10:35:12;5.30;99.90
43641;DHT22;72791;52.546;13.570;2024-03-08T10:37:47;5.30;99.90
43641;DHT22;72791;52.546;13.570;2024-03-08T10:40:17;5.40;99.90
43641;DHT22;72791;52.546;13.570;2024-03-08T10:42:51;5.50;99.90
43641;DHT22;72791;52.546;13.570;2024-03-08T10:45:30;5.50;99.90
43641;DHT22;72791;52.546;13.570;2024-03-08T10:50:32;5.60;99.90
43641;DHT22;72791;52.546;13.570;2024-03-08T10:53:06;5.70;99.90
43641;DHT22;72791;52.546;13.570;2024-03-08T10:55:33;5.70;99.90
43641;DHT22;72791;52.546;13.570;2024-03-08T10:58:00;5.70;99.90
43641;DHT22;72791;52.546;13.570;2024-03-08T11:00:26;5.80;99.90
43641;DHT22;72791;52.546;13.570;2024-03-08T11:02:53;5.80;99.90
43641;DHT22;72791;52.546;13.570;2024-03-08T11:08:16;5.80;99.90
43641;DHT22;72791;52.546;13.570;2024-03-08T11:10:51;5.90;99.90
43641;DHT22;72791;52.546;13.570;2024-03-08T11:13:39;5.90;99.90
43641;DHT22;72791;52.546;13.570;2024-03-08T11:16:12;5.90;99.90
43641;DHT22;72791;52.546;13.570;2024-03-08T11:18:38;5.90;99.90
43641;DHT22;72791;52.546;13.570;2024-03-08T11:21:07;5.90;99.90
43641;DHT22;72791;52.546;13.570;2024-03-08T11:23:41;5.90;99.90
43641;DHT22;72791;52.546;13.570;2024-03-08T11:26:21;6.00;99.90
43641;DHT22;72791;52.546;13.570;2024-03-08T11:28:49;6.00;99.90
43641;DHT22;72791;52.546;13.570;2024-03-08T11:31:25;6.00;99.90
43641;DHT22;72791;52.546;13.570;2024-03-08T11:33:53;6.10;99.90
43641;DHT22;72791;52.546;13.570;2024-03-08T11:36:24;6.20;99.90
43641;DHT22;72791;52.546;13.570;2024-03-08T11:38:51;6.20;99.90
43641;DHT22;72791;52.546;13.570;2024-03-08T11:41:22;6.30;99.90
43641;DHT22;72791;52.546;13.570;2024-03-08T11:43:50;6.30;99.90
43641;DHT22;72791;52.546;13.570;2024-03-08T11:46:26;6.30;99.90
43641;DHT22;72791;52.546;13.570;2024-03-08T11:48:54;6.40;99.90
43641;DHT22;72791;52.546;13.570;2024-03-08T11:51:21;6.40;99.90
43641;DHT22;72791;52.546;13.570;2024-03-08T11:53:49;6.50;99.90
43641;DHT22;72791;52.546;13.570;2024-03-08T11:56:17;6.60;99.90
43641;DHT22;72791;52.546;13.570;2024-03-08T11:58:55;6.60;99.90
43641;DHT22;72791;52.546;13.570;2024-03-08T12:01:23;6.60;99.90
43641;DHT22;72791;52.546;13.570;2024-03-08T12:03:59;6.60;99.90
43641;DHT22;72791;52.546;13.570;2024-03-08T12:06:27;6.70;99.90
43641;DHT22;72791;52.546;13.570;2024-03-08T12:09:01;6.70;99.90
43641;DHT22;72791;52.546;13.570;2024-03-08T12:11:28;6.70;99.90
43641;DHT22;72791;52.546;13.570;2024-03-08T12:13:58;6.80;99.90
43641;DHT22;72791;52.546;13.570;2024-03-08T12:16:25;6.80;99.90
43641;DHT22;72791;52.546;13.570;2024-03-08T12:18:51;6.80;99.90
43641;DHT22;72791;52.546;13.570;2024-03-08T12:21:20;6.90;99.90
43641;DHT22;72791;52.546;13.570;2024-03-08T12:23:48;6.90;99.90
43641;DHT22;72791;52.546;13.570;2024-03-08T12:26:28;7.00;99.90
43641;DHT22;72791;52.546;13.570;2024-03-08T12:29:37;7.00;99.90
43641;DHT22;72791;52.546;13.570;2024-03-08T12:31:59;7.10;99.90
43641;DHT22;72791;52.546;13.570;2024-03-08T12:34:31;7.00;99.90
43641;DHT22;72791;52.546;13.570;2024-03-08T12:36:58;7.00;99.90
43641;DHT22;72791;52.546;13.570;2024-03-08T12:39:26;7.00;99.90
43641;DHT22;72791;52.546;13.570;2024-03-08T12:42:11;7.10;99.90
43641;DHT22;72791;52.546;13.570;2024-03-08T12:44:37;7.20;99.90
43641;DHT22;72791;52.546;13.570;2024-03-08T12:47:10;7.20;99.90
43641;DHT22;72791;52.546;13.570;2024-03-08T12:49:38;7.20;99.90
43641;DHT22;72791;52.546;13.570;2024-03-08T12:52:10;7.20;99.90
43641;DHT22;72791;52.546;13.570;2024-03-08T12:54:36;7.30;99.90
43641;DHT22;72791;52.546;13.570;2024-03-08T12:57:01;7.40;99.90
43641;DHT22;72791;52.546;13.570;2024-03-08T12:59:31;7.50;99.90
43641;DHT22;72791;52.546;13.570;2024-03-08T13:01:57;7.50;99.90
43641;DHT22;72791;52.546;13.570;2024-03-08T13:04:26;7.50;99.90
43641;DHT22;72791;52.546;13.570;2024-03-08T13:06:51;7.60;99.90
43641;DHT22;72791;52.546;13.570;2024-03-08T13:09:20;7.60;99.90
43641;DHT22;72791;52.546;13.570;2024-03-08T13:11:47;7.60;99.90
43641;DHT22;72791;52.546;13.570;2024-03-08T13:14:13;7.60;99.90
43641;DHT22;72791;52.546;13.570;2024-03-08T13:16:39;7.60;99.90
43641;DHT22;72791;52.546;13.570;2024-03-08T13:19:05;7.60;99.90
43641;DHT22;72791;52.546;13.570;2024-03-08T13:21:32;7.50;99.90
43641;DHT22;72791;52.546;13.570;2024-03-08T13:23:58;7.50;99.90
43641;DHT22;72791;52.546;13.570;2024-03-08T13:26:26;7.50;99.90
43641;DHT22;72791;52.546;13.570;2024-03-08T13:28:58;7.60;99.90
43641;DHT22;72791;52.546;13.570;2024-03-08T13:31:24;7.70;99.90
43641;DHT22;72791;52.546;13.570;2024-03-08T13:33:49;7.80;99.90
43641;DHT22;72791;52.546;13.570;2024-03-08T13:36:17;7.80;99.90
43641;DHT22;72791;52.546;13.570;2024-03-08T13:38:48;7.80;99.90
43641;DHT22;72791;52.546;13.570;2024-03-08T13:41:16;7.90;99.90
43641;DHT22;72791;52.546;13.570;2024-03-08T13:43:46;7.90;99.90
43641;DHT22;72791;52.546;13.570;2024-03-08T13:46:15;7.80;99.90
43641;DHT22;72791;52.546;13.570;2024-03-08T13:48:41;7.90;99.90
43641;DHT22;72791;52.546;13.570;2024-03-08T13:51:07;7.80;99.90
43641;DHT22;72791;52.546;13.570;2024-03-08T13:53:41;7.80;99.90
43641;DHT22;72791;52.546;13.570;2024-03-08T13:56:07;7.80;99.90
43641;DHT22;72791;52.546;13.570;2024-03-08T13:58:36;7.80;99.90
43641;DHT22;72791;52.546;13.570;2024-03-08T14:01:02;7.80;99.90
43641;DHT22;72791;52.546;13.570;2024-03-08T14:03:31;7.90;99.90
43641;DHT22;72791;52.546;13.570;2024-03-08T14:05:58;7.90;99.90
43641;DHT22;72791;52.546;13.570;2024-03-08T14:08:25;7.80;99.90
43641;DHT22;72791;52.546;13.570;2024-03-08T14:10:52;7.90;99.90
43641;DHT22;72791;52.546;13.570;2024-03-08T14:13:19;7.90;99.90
43641;DHT22;72791;52.546;13.570;2024-03-08T14:15:46;7.90;99.90
43641;DHT22;72791;52.546;13.570;2024-03-08T14:18:11;7.90;99.90
43641;DHT22;72791;52.546;13.570;2024-03-08T14:20:39;8.00;99.90
43641;DHT22;72791;52.546;13.570;2024-03-08T14:23:04;8.00;99.90
43641;DHT22;72791;52.546;13.570;2024-03-08T14:25:33;8.00;99.90
43641;DHT22;72791;52.546;13.570;2024-03-08T14:27:59;8.00;99.90
43641;DHT22;72791;52.546;13.570;2024-03-08T14:30:33;8.00;99.90
43641;DHT22;72791;52.546;13.570;2024-03-08T14:33:07;8.00;99.90
43641;DHT22;72791;52.546;13.570;2024-03-08T14:35:39;8.00;99.90
43641;DHT22;72791;52.546;13.570;2024-03-08T14:38:06;8.10;99.90
43641;DHT22;72791;52.546;13.570;2024-03-08T14:40:39;8.10;99.90
43641;DHT22;72791;52.546;13.570;2024-03-08T14:43:05;8.10;99.90
43641;DHT22;72791;52.546;13.570;2024-03-08T14:45:31;8.20;99.90
43641;DHT22;72791;52.546;13.570;2024-03-08T14:47:58;8.30;99.90
43641;DHT22;72791;52.546;13.570;2024-03-08T14:50:25;8.30;99.90
43641;DHT22;72791;52.546;13.570;2024-03-08T14:52:51;8.30;99.90
43641;DHT22;72791;52.546;13.570;2024-03-08T14:55:21;8.40;99.90
43641;DHT22;72791;52.546;13.570;2024-03-08T14:57:51;8.40;99.90
43641;DHT22;72791;52.546;13.570;2024-03-08T15:00:18;8.40;99.90
43641;DHT22;72791;52.546;13.570;2024-03-08T15:02:56;8.40;99.90
43641;DHT22;72791;52.546;13.570;2024-03-08T15:05:25;8.40;99.90
43641;DHT22;72791;52.546;13.570;2024-03-08T15:07:54;8.40;99.90
43641;DHT22;72791;52.546;13.570;2024-03-08T15:10:20;8.40;99.90
43641;DHT22;72791;52.546;13.570;2024-03-08T15:12:52;8.50;99.90
43641;DHT22;72791;52.546;13.570;2024-03-08T15:15:21;8.50;99.90
43641;DHT22;72791;52.546;13.570;2024-03-08T15:17:50;8.50;99.90
43641;DHT22;72791;52.546;13.570;2024-03-08T15:20:16;8.50;99.90
43641;DHT22;72791;52.546;13.570;2024-03-08T15:22:50;8.40;99.90
43641;DHT22;72791;52.546;13.570;2024-03-08T15:25:17;8.40;99.90
43641;DHT22;72791;52.546;13.570;2024-03-08T15:27:49;8.40;99.90
43641;DHT22;72791;52.546;13.570;2024-03-08T15:30:15;8.40;99.90
43641;DHT22;72791;52.546;13.570;2024-03-08T15:32:46;8.30;99.90
43641;DHT22;72791;52.546;13.570;2024-03-08T15:35:13;8.30;99.90
43641;DHT22;72791;52.546;13.570;2024-03-08T15:37:43;8.30;99.90